sensor_id;sensor_type;location;lat;lon;timestamp;P1;durP1;ratioP1;P2;durP2;ratioP2
47337;SDS011;33069;51.970;5.892;2023-03-24T00:01:02;8.15;;;3.55;;
47337;SDS011;33069;51.970;5.892;2023-03-24T00:03:29;6.03;;;2.70;;
47337;SDS011;33069;51.970;5.892;2023-03-24T00:05:58;9.90;;;4.25;;
47337;SDS011;33069;51.970;5.892;2023-03-24T00:08:30;10.25;;;3.97;;
47337;SDS011;33069;51.970;5.892;2023-03-24T00:11:02;8.43;;;3.78;;
47337;SDS011;33069;51.970;5.892;2023-03-24T00:13:31;7.85;;;3.22;;
47337;SDS011;33069;51.970;5.892;2023-03-24T00:16:11;9.90;;;3.70;;
47337;SDS011;33069;51.970;5.892;2023-03-24T00:18:38;10.00;;;4.15;;
47337;SDS011;33069;51.970;5.892;2023-03-24T00:21:05;7.72;;;3.78;;
47337;SDS011;33069;51.970;5.892;2023-03-24T00:23:33;6.93;;;3.97;;
47337;SDS011;33069;51.970;5.892;2023-03-24T00:26:06;10.20;;;3.92;;
47337;SDS011;33069;51.970;5.892;2023-03-24T00:28:40;8.70;;;3.97;;
47337;SDS011;33069;51.970;5.892;2023-03-24T00:31:10;9.18;;;3.95;;
47337;SDS011;33069;51.970;5.892;2023-03-24T00:33:39;10.10;;;4.45;;
47337;SDS011;33069;51.970;5.892;2023-03-24T00:36:07;9.63;;;5.07;;
47337;SDS011;33069;51.970;5.892;2023-03-24T00:38:37;7.05;;;3.83;;
47337;SDS011;33069;51.970;5.892;2023-03-24T00:41:05;10.35;;;4.63;;
47337;SDS011;33069;51.970;5.892;2023-03-24T00:43:32;7.18;;;4.45;;
47337;SDS011;33069;51.970;5.892;2023-03-24T00:45:58;10.18;;;4.97;;
47337;SDS011;33069;51.970;5.892;2023-03-24T00:48:32;7.30;;;3.63;;
47337;SDS011;33069;51.970;5.892;2023-03-24T00:51:00;8.50;;;4.40;;
47337;SDS011;33069;51.970;5.892;2023-03-24T00:53:29;10.85;;;4.22;;
47337;SDS011;33069;51.970;5.892;2023-03-24T00:55:55;9.75;;;4.18;;
47337;SDS011;33069;51.970;5.892;2023-03-24T00:58:22;7.32;;;3.30;;
47337;SDS011;33069;51.970;5.892;2023-03-24T01:00:50;6.70;;;3.97;;
47337;SDS011;33069;51.970;5.892;2023-03-24T01:03:20;8.73;;;4.05;;
47337;SDS011;33069;51.970;5.892;2023-03-24T01:05:49;7.97;;;3.92;;
47337;SDS011;33069;51.970;5.892;2023-03-24T01:08:15;7.35;;;3.70;;
47337;SDS011;33069;51.970;5.892;2023-03-24T01:10:46;8.48;;;4.15;;
47337;SDS011;33069;51.970;5.892;2023-03-24T01:13:21;7.45;;;4.40;;
47337;SDS011;33069;51.970;5.892;2023-03-24T01:15:52;6.95;;;4.05;;
47337;SDS011;33069;51.970;5.892;2023-03-24T01:18:18;6.35;;;3.60;;
47337;SDS011;33069;51.970;5.892;2023-03-24T01:20:45;7.57;;;3.65;;
47337;SDS011;33069;51.970;5.892;2023-03-24T01:23:15;8.05;;;4.70;;
47337;SDS011;33069;51.970;5.892;2023-03-24T01:25:45;6.93;;;4.28;;
47337;SDS011;33069;51.970;5.892;2023-03-24T01:28:13;8.02;;;3.70;;
47337;SDS011;33069;51.970;5.892;2023-03-24T01:30:41;6.53;;;3.67;;
47337;SDS011;33069;51.970;5.892;2023-03-24T01:33:07;8.88;;;3.63;;
47337;SDS011;33069;51.970;5.892;2023-03-24T01:35:33;6.82;;;3.45;;
47337;SDS011;33069;51.970;5.892;2023-03-24T01:37:59;5.78;;;3.08;;
47337;SDS011;33069;51.970;5.892;2023-03-24T01:40:29;8.35;;;3.50;;
47337;SDS011;33069;51.970;5.892;2023-03-24T01:42:57;6.35;;;3.58;;
47337;SDS011;33069;51.970;5.892;2023-03-24T01:45:41;7.90;;;3.08;;
47337;SDS011;33069;51.970;5.892;2023-03-24T01:48:18;9.07;;;3.80;;
47337;SDS011;33069;51.970;5.892;2023-03-24T01:50:50;6.55;;;3.58;;
47337;SDS011;33069;51.970;5.892;2023-03-24T01:53:20;6.22;;;3.22;;
47337;SDS011;33069;51.970;5.892;2023-03-24T01:55:47;5.38;;;3.20;;
47337;SDS011;33069;51.970;5.892;2023-03-24T01:58:13;6.50;;;3.45;;
47337;SDS011;33069;51.970;5.892;2023-03-24T02:00:40;6.53;;;3.92;;
47337;SDS011;33069;51.970;5.892;2023-03-24T02:03:08;6.50;;;3.90;;
47337;SDS011;33069;51.970;5.892;2023-03-24T02:05:38;8.18;;;4.05;;
47337;SDS011;33069;51.970;5.892;2023-03-24T02:10:56;6.90;;;3.85;;
47337;SDS011;33069;51.970;5.892;2023-03-24T02:13:24;5.40;;;3.25;;
47337;SDS011;33069;51.970;5.892;2023-03-24T02:42:25;7.05;;;4.18;;
47337;SDS011;33069;51.970;5.892;2023-03-24T02:50:44;9.00;;;6.05;;
47337;SDS011;33069;51.970;5.892;2023-03-24T02:53:26;8.02;;;3.92;;
47337;SDS011;33069;51.970;5.892;2023-03-24T02:56:04;6.82;;;4.50;;
47337;SDS011;33069;51.970;5.892;2023-03-24T02:58:40;7.63;;;4.47;;
47337;SDS011;33069;51.970;5.892;2023-03-24T03:03:56;8.75;;;4.63;;
47337;SDS011;33069;51.970;5.892;2023-03-24T03:06:28;6.85;;;4.80;;
47337;SDS011;33069;51.970;5.892;2023-03-24T03:08:59;6.60;;;3.60;;
47337;SDS011;33069;51.970;5.892;2023-03-24T03:11:29;8.07;;;4.88;;
47337;SDS011;33069;51.970;5.892;2023-03-24T03:13:57;12.38;;;4.90;;
47337;SDS011;33069;51.970;5.892;2023-03-24T03:17:13;8.07;;;5.40;;
47337;SDS011;33069;51.970;5.892;2023-03-24T03:19:29;13.80;;;12.75;;
47337;SDS011;33069;51.970;5.892;2023-03-24T03:22:03;5.72;;;2.40;;
47337;SDS011;33069;51.970;5.892;2023-03-24T03:24:36;2.17;;;1.50;;
47337;SDS011;33069;51.970;5.892;2023-03-24T03:27:13;4.40;;;1.90;;
47337;SDS011;33069;51.970;5.892;2023-03-24T03:29:45;4.03;;;2.08;;
47337;SDS011;33069;51.970;5.892;2023-03-24T03:32:17;4.65;;;1.50;;
47337;SDS011;33069;51.970;5.892;2023-03-24T03:37:56;3.38;;;1.20;;
47337;SDS011;33069;51.970;5.892;2023-03-24T03:43:13;4.68;;;1.42;;
47337;SDS011;33069;51.970;5.892;2023-03-24T03:45:40;6.88;;;1.65;;
47337;SDS011;33069;51.970;5.892;2023-03-24T03:48:05;3.95;;;1.60;;
47337;SDS011;33069;51.970;5.892;2023-03-24T03:50:31;4.47;;;1.33;;
47337;SDS011;33069;51.970;5.892;2023-03-24T03:52:58;3.38;;;1.20;;
47337;SDS011;33069;51.970;5.892;2023-03-24T03:55:25;6.55;;;1.67;;
47337;SDS011;33069;51.970;5.892;2023-03-24T03:57:51;4.93;;;1.48;;
47337;SDS011;33069;51.970;5.892;2023-03-24T04:00:19;3.63;;;1.40;;
47337;SDS011;33069;51.970;5.892;2023-03-24T04:05:41;11.02;;;1.95;;
47337;SDS011;33069;51.970;5.892;2023-03-24T04:22:36;10.63;;;2.05;;
47337;SDS011;33069;51.970;5.892;2023-03-24T04:28:18;12.02;;;2.17;;
47337;SDS011;33069;51.970;5.892;2023-03-24T04:30:56;11.80;;;2.15;;
47337;SDS011;33069;51.970;5.892;2023-03-24T04:33:45;8.25;;;1.95;;
47337;SDS011;33069;51.970;5.892;2023-03-24T04:36:21;12.65;;;2.17;;
47337;SDS011;33069;51.970;5.892;2023-03-24T04:38:51;11.00;;;3.05;;
47337;SDS011;33069;51.970;5.892;2023-03-24T04:41:21;14.73;;;6.00;;
47337;SDS011;33069;51.970;5.892;2023-03-24T04:43:50;17.63;;;3.10;;
47337;SDS011;33069;51.970;5.892;2023-03-24T04:46:19;17.02;;;3.47;;
47337;SDS011;33069;51.970;5.892;2023-03-24T04:48:45;14.63;;;4.40;;
47337;SDS011;33069;51.970;5.892;2023-03-24T04:51:15;17.58;;;2.88;;
47337;SDS011;33069;51.970;5.892;2023-03-24T04:53:43;16.48;;;3.17;;
47337;SDS011;33069;51.970;5.892;2023-03-24T04:56:25;14.98;;;4.55;;
47337;SDS011;33069;51.970;5.892;2023-03-24T04:59:18;21.35;;;3.85;;
47337;SDS011;33069;51.970;5.892;2023-03-24T05:01:45;16.77;;;3.45;;
47337;SDS011;33069;51.970;5.892;2023-03-24T05:04:14;17.80;;;3.30;;
47337;SDS011;33069;51.970;5.892;2023-03-24T05:06:41;14.98;;;3.10;;
47337;SDS011;33069;51.970;5.892;2023-03-24T05:09:07;17.77;;;3.08;;
47337;SDS011;33069;51.970;5.892;2023-03-24T05:11:33;16.73;;;3.30;;
47337;SDS011;33069;51.970;5.892;2023-03-24T05:13:58;19.10;;;3.45;;
47337;SDS011;33069;51.970;5.892;2023-03-24T05:16:24;24.45;;;4.03;;
47337;SDS011;33069;51.970;5.892;2023-03-24T05:18:50;24.08;;;3.63;;
47337;SDS011;33069;51.970;5.892;2023-03-24T05:21:15;14.57;;;3.20;;
47337;SDS011;33069;51.970;5.892;2023-03-24T05:23:41;18.88;;;3.45;;
47337;SDS011;33069;51.970;5.892;2023-03-24T05:26:07;16.95;;;3.08;;
47337;SDS011;33069;51.970;5.892;2023-03-24T05:28:33;23.48;;;3.65;;
47337;SDS011;33069;51.970;5.892;2023-03-24T05:30:58;28.52;;;4.43;;
47337;SDS011;33069;51.970;5.892;2023-03-24T05:33:25;35.22;;;4.75;;
47337;SDS011;33069;51.970;5.892;2023-03-24T05:35:51;21.10;;;5.10;;
47337;SDS011;33069;51.970;5.892;2023-03-24T05:38:17;26.70;;;4.82;;
47337;SDS011;33069;51.970;5.892;2023-03-24T05:40:43;15.90;;;3.60;;
47337;SDS011;33069;51.970;5.892;2023-03-24T05:43:08;14.57;;;5.55;;
47337;SDS011;33069;51.970;5.892;2023-03-24T05:45:36;21.25;;;4.40;;
47337;SDS011;33069;51.970;5.892;2023-03-24T05:48:02;20.10;;;4.15;;
47337;SDS011;33069;51.970;5.892;2023-03-24T05:50:28;15.93;;;4.10;;
47337;SDS011;33069;51.970;5.892;2023-03-24T05:52:54;20.75;;;6.28;;
47337;SDS011;33069;51.970;5.892;2023-03-24T05:55:20;21.85;;;4.82;;
47337;SDS011;33069;51.970;5.892;2023-03-24T05:57:46;14.13;;;4.72;;
47337;SDS011;33069;51.970;5.892;2023-03-24T06:00:11;23.55;;;4.80;;
47337;SDS011;33069;51.970;5.892;2023-03-24T06:02:42;20.50;;;4.30;;
47337;SDS011;33069;51.970;5.892;2023-03-24T06:05:09;23.33;;;4.88;;
47337;SDS011;33069;51.970;5.892;2023-03-24T06:07:35;19.30;;;4.57;;
47337;SDS011;33069;51.970;5.892;2023-03-24T06:10:02;18.00;;;4.13;;
47337;SDS011;33069;51.970;5.892;2023-03-24T06:12:29;23.85;;;4.40;;
47337;SDS011;33069;51.970;5.892;2023-03-24T06:14:56;17.00;;;5.20;;
47337;SDS011;33069;51.970;5.892;2023-03-24T06:17:22;18.65;;;4.80;;
47337;SDS011;33069;51.970;5.892;2023-03-24T06:19:49;21.88;;;4.60;;
47337;SDS011;33069;51.970;5.892;2023-03-24T06:22:18;25.45;;;4.60;;
47337;SDS011;33069;51.970;5.892;2023-03-24T06:24:45;16.70;;;4.32;;
47337;SDS011;33069;51.970;5.892;2023-03-24T06:27:14;17.40;;;5.03;;
47337;SDS011;33069;51.970;5.892;2023-03-24T06:29:42;19.88;;;6.22;;
47337;SDS011;33069;51.970;5.892;2023-03-24T06:32:08;19.38;;;5.03;;
47337;SDS011;33069;51.970;5.892;2023-03-24T06:34:35;18.02;;;4.68;;
47337;SDS011;33069;51.970;5.892;2023-03-24T06:37:03;21.30;;;5.55;;
47337;SDS011;33069;51.970;5.892;2023-03-24T06:39:29;12.63;;;3.88;;
47337;SDS011;33069;51.970;5.892;2023-03-24T06:41:54;17.20;;;4.05;;
47337;SDS011;33069;51.970;5.892;2023-03-24T06:44:20;21.42;;;5.30;;
47337;SDS011;33069;51.970;5.892;2023-03-24T06:46:46;12.10;;;3.95;;
47337;SDS011;33069;51.970;5.892;2023-03-24T06:49:11;26.20;;;5.72;;
47337;SDS011;33069;51.970;5.892;2023-03-24T06:51:37;27.98;;;5.53;;
47337;SDS011;33069;51.970;5.892;2023-03-24T06:54:03;20.55;;;4.45;;
47337;SDS011;33069;51.970;5.892;2023-03-24T06:56:28;18.13;;;5.82;;
47337;SDS011;33069;51.970;5.892;2023-03-24T06:58:54;17.23;;;4.45;;
47337;SDS011;33069;51.970;5.892;2023-03-24T07:01:20;19.17;;;4.68;;
47337;SDS011;33069;51.970;5.892;2023-03-24T07:03:47;18.60;;;5.30;;
47337;SDS011;33069;51.970;5.892;2023-03-24T07:06:13;17.05;;;4.38;;
47337;SDS011;33069;51.970;5.892;2023-03-24T07:08:38;16.52;;;4.78;;
47337;SDS011;33069;51.970;5.892;2023-03-24T07:11:05;21.67;;;4.10;;
47337;SDS011;33069;51.970;5.892;2023-03-24T07:13:32;15.05;;;4.55;;
47337;SDS011;33069;51.970;5.892;2023-03-24T07:15:58;18.27;;;4.53;;
47337;SDS011;33069;51.970;5.892;2023-03-24T07:18:24;20.10;;;4.75;;
47337;SDS011;33069;51.970;5.892;2023-03-24T07:20:50;17.92;;;4.78;;
47337;SDS011;33069;51.970;5.892;2023-03-24T07:23:16;17.65;;;4.53;;
47337;SDS011;33069;51.970;5.892;2023-03-24T07:25:41;22.58;;;4.80;;
47337;SDS011;33069;51.970;5.892;2023-03-24T07:28:08;18.30;;;4.70;;
47337;SDS011;33069;51.970;5.892;2023-03-24T07:30:35;18.67;;;4.32;;
47337;SDS011;33069;51.970;5.892;2023-03-24T07:33:01;19.90;;;4.50;;
47337;SDS011;33069;51.970;5.892;2023-03-24T07:35:28;21.73;;;5.15;;
47337;SDS011;33069;51.970;5.892;2023-03-24T07:37:58;17.90;;;3.53;;
47337;SDS011;33069;51.970;5.892;2023-03-24T07:40:24;19.02;;;4.43;;
47337;SDS011;33069;51.970;5.892;2023-03-24T07:42:50;18.55;;;4.30;;
47337;SDS011;33069;51.970;5.892;2023-03-24T07:45:16;22.20;;;5.55;;
47337;SDS011;33069;51.970;5.892;2023-03-24T07:47:42;16.10;;;4.45;;
47337;SDS011;33069;51.970;5.892;2023-03-24T07:50:09;19.77;;;4.15;;
47337;SDS011;33069;51.970;5.892;2023-03-24T07:52:36;19.60;;;5.00;;
47337;SDS011;33069;51.970;5.892;2023-03-24T07:55:06;18.20;;;4.07;;
47337;SDS011;33069;51.970;5.892;2023-03-24T07:57:36;20.00;;;5.45;;
47337;SDS011;33069;51.970;5.892;2023-03-24T08:00:06;14.32;;;3.80;;
47337;SDS011;33069;51.970;5.892;2023-03-24T08:02:40;15.70;;;4.55;;
47337;SDS011;33069;51.970;5.892;2023-03-24T08:05:07;17.25;;;4.30;;
47337;SDS011;33069;51.970;5.892;2023-03-24T08:07:34;19.65;;;3.80;;
47337;SDS011;33069;51.970;5.892;2023-03-24T08:10:01;16.65;;;4.55;;
47337;SDS011;33069;51.970;5.892;2023-03-24T08:12:28;15.13;;;3.95;;
47337;SDS011;33069;51.970;5.892;2023-03-24T08:14:54;24.85;;;4.28;;
47337;SDS011;33069;51.970;5.892;2023-03-24T08:17:20;17.77;;;3.70;;
47337;SDS011;33069;51.970;5.892;2023-03-24T08:19:46;17.40;;;3.60;;
47337;SDS011;33069;51.970;5.892;2023-03-24T08:22:12;23.73;;;4.22;;
47337;SDS011;33069;51.970;5.892;2023-03-24T08:24:38;18.85;;;3.97;;
47337;SDS011;33069;51.970;5.892;2023-03-24T08:27:03;19.15;;;3.85;;
47337;SDS011;33069;51.970;5.892;2023-03-24T08:29:32;21.45;;;4.35;;
47337;SDS011;33069;51.970;5.892;2023-03-24T08:32:00;14.80;;;3.72;;
47337;SDS011;33069;51.970;5.892;2023-03-24T08:34:26;17.10;;;4.38;;
47337;SDS011;33069;51.970;5.892;2023-03-24T08:36:52;11.45;;;3.63;;
47337;SDS011;33069;51.970;5.892;2023-03-24T08:39:18;21.45;;;4.53;;
47337;SDS011;33069;51.970;5.892;2023-03-24T08:41:44;15.23;;;4.25;;
47337;SDS011;33069;51.970;5.892;2023-03-24T08:44:10;19.90;;;5.18;;
47337;SDS011;33069;51.970;5.892;2023-03-24T08:46:37;12.70;;;4.50;;
47337;SDS011;33069;51.970;5.892;2023-03-24T08:49:04;13.73;;;3.90;;
47337;SDS011;33069;51.970;5.892;2023-03-24T08:51:30;17.48;;;4.45;;
47337;SDS011;33069;51.970;5.892;2023-03-24T08:53:56;16.60;;;4.00;;
47337;SDS011;33069;51.970;5.892;2023-03-24T08:56:23;17.27;;;5.65;;
47337;SDS011;33069;51.970;5.892;2023-03-24T08:58:49;18.77;;;3.85;;
47337;SDS011;33069;51.970;5.892;2023-03-24T09:01:17;17.02;;;4.68;;
47337;SDS011;33069;51.970;5.892;2023-03-24T09:03:44;11.48;;;3.38;;
47337;SDS011;33069;51.970;5.892;2023-03-24T09:06:11;18.95;;;4.68;;
47337;SDS011;33069;51.970;5.892;2023-03-24T09:08:37;17.60;;;4.70;;
47337;SDS011;33069;51.970;5.892;2023-03-24T09:11:03;21.70;;;5.55;;
47337;SDS011;33069;51.970;5.892;2023-03-24T09:13:30;17.05;;;4.63;;
47337;SDS011;33069;51.970;5.892;2023-03-24T09:16:00;15.65;;;4.07;;
47337;SDS011;33069;51.970;5.892;2023-03-24T09:18:27;16.05;;;4.65;;
47337;SDS011;33069;51.970;5.892;2023-03-24T09:20:53;18.92;;;4.18;;
47337;SDS011;33069;51.970;5.892;2023-03-24T09:23:19;19.50;;;5.25;;
47337;SDS011;33069;51.970;5.892;2023-03-24T09:25:49;19.95;;;4.45;;
47337;SDS011;33069;51.970;5.892;2023-03-24T09:28:16;11.82;;;3.67;;
47337;SDS011;33069;51.970;5.892;2023-03-24T09:30:42;13.18;;;5.35;;
47337;SDS011;33069;51.970;5.892;2023-03-24T09:33:08;13.80;;;3.97;;
47337;SDS011;33069;51.970;5.892;2023-03-24T09:35:34;20.27;;;4.50;;
47337;SDS011;33069;51.970;5.892;2023-03-24T09:38:00;14.95;;;4.13;;
47337;SDS011;33069;51.970;5.892;2023-03-24T09:40:27;11.23;;;3.17;;
47337;SDS011;33069;51.970;5.892;2023-03-24T09:43:05;16.15;;;3.88;;
47337;SDS011;33069;51.970;5.892;2023-03-24T09:45:48;13.88;;;4.07;;
47337;SDS011;33069;51.970;5.892;2023-03-24T09:48:17;11.48;;;3.58;;
47337;SDS011;33069;51.970;5.892;2023-03-24T09:51:08;15.27;;;4.57;;
47337;SDS011;33069;51.970;5.892;2023-03-24T09:56:34;16.27;;;3.75;;
47337;SDS011;33069;51.970;5.892;2023-03-24T09:59:06;16.58;;;4.47;;
47337;SDS011;33069;51.970;5.892;2023-03-24T10:01:46;14.67;;;4.60;;
47337;SDS011;33069;51.970;5.892;2023-03-24T10:04:13;13.20;;;3.85;;
47337;SDS011;33069;51.970;5.892;2023-03-24T10:06:45;20.05;;;4.53;;
47337;SDS011;33069;51.970;5.892;2023-03-24T10:09:23;10.40;;;3.30;;
47337;SDS011;33069;51.970;5.892;2023-03-24T10:14:59;11.55;;;3.45;;
47337;SDS011;33069;51.970;5.892;2023-03-24T10:18:00;16.13;;;4.65;;
47337;SDS011;33069;51.970;5.892;2023-03-24T10:26:08;14.00;;;4.28;;
47337;SDS011;33069;51.970;5.892;2023-03-24T10:28:54;18.17;;;3.70;;
47337;SDS011;33069;51.970;5.892;2023-03-24T10:31:43;7.72;;;3.08;;
47337;SDS011;33069;51.970;5.892;2023-03-24T10:34:12;13.07;;;3.75;;
47337;SDS011;33069;51.970;5.892;2023-03-24T10:36:38;17.90;;;3.25;;
47337;SDS011;33069;51.970;5.892;2023-03-24T10:39:05;13.10;;;3.60;;
47337;SDS011;33069;51.970;5.892;2023-03-24T10:41:33;20.42;;;4.63;;
47337;SDS011;33069;51.970;5.892;2023-03-24T10:44:00;15.60;;;4.53;;
47337;SDS011;33069;51.970;5.892;2023-03-24T10:46:27;13.27;;;4.68;;
47337;SDS011;33069;51.970;5.892;2023-03-24T10:51:36;11.85;;;4.70;;
47337;SDS011;33069;51.970;5.892;2023-03-24T10:54:10;13.90;;;5.15;;
47337;SDS011;33069;51.970;5.892;2023-03-24T10:56:46;11.70;;;4.47;;
47337;SDS011;33069;51.970;5.892;2023-03-24T11:02:23;13.73;;;4.30;;
47337;SDS011;33069;51.970;5.892;2023-03-24T11:04:59;10.13;;;4.55;;
47337;SDS011;33069;51.970;5.892;2023-03-24T11:07:37;12.15;;;5.10;;
47337;SDS011;33069;51.970;5.892;2023-03-24T11:10:12;10.73;;;4.57;;
47337;SDS011;33069;51.970;5.892;2023-03-24T11:17:56;16.60;;;4.20;;
47337;SDS011;33069;51.970;5.892;2023-03-24T11:20:30;8.73;;;3.50;;
47337;SDS011;33069;51.970;5.892;2023-03-24T11:23:20;9.65;;;4.25;;
47337;SDS011;33069;51.970;5.892;2023-03-24T11:28:38;15.32;;;2.97;;
47337;SDS011;33069;51.970;5.892;2023-03-24T11:31:08;10.52;;;2.92;;
47337;SDS011;33069;51.970;5.892;2023-03-24T11:33:44;6.88;;;2.28;;
47337;SDS011;33069;51.970;5.892;2023-03-24T11:39:10;6.53;;;2.05;;
47337;SDS011;33069;51.970;5.892;2023-03-24T11:41:39;4.43;;;2.28;;
47337;SDS011;33069;51.970;5.892;2023-03-24T11:44:13;3.92;;;2.10;;
47337;SDS011;33069;51.970;5.892;2023-03-24T11:49:45;11.02;;;3.00;;
47337;SDS011;33069;51.970;5.892;2023-03-24T11:52:23;5.70;;;2.22;;
47337;SDS011;33069;51.970;5.892;2023-03-24T11:54:52;6.57;;;2.78;;
47337;SDS011;33069;51.970;5.892;2023-03-24T11:57:26;8.35;;;3.28;;
47337;SDS011;33069;51.970;5.892;2023-03-24T12:00:19;11.60;;;3.92;;
47337;SDS011;33069;51.970;5.892;2023-03-24T12:09:19;11.23;;;4.40;;
47337;SDS011;33069;51.970;5.892;2023-03-24T12:17:23;15.18;;;5.63;;
47337;SDS011;33069;51.970;5.892;2023-03-24T12:22:58;9.27;;;3.70;;
47337;SDS011;33069;51.970;5.892;2023-03-24T12:28:45;7.95;;;2.78;;
47337;SDS011;33069;51.970;5.892;2023-03-24T12:39:32;10.95;;;2.30;;
47337;SDS011;33069;51.970;5.892;2023-03-24T12:47:34;5.57;;;1.70;;
47337;SDS011;33069;51.970;5.892;2023-03-24T12:53:34;11.10;;;2.53;;
47337;SDS011;33069;51.970;5.892;2023-03-24T12:55:58;10.07;;;2.83;;
47337;SDS011;33069;51.970;5.892;2023-03-24T12:58:43;10.77;;;2.60;;
47337;SDS011;33069;51.970;5.892;2023-03-24T13:03:49;11.35;;;2.60;;
47337;SDS011;33069;51.970;5.892;2023-03-24T13:06:26;4.80;;;2.42;;
47337;SDS011;33069;51.970;5.892;2023-03-24T13:09:13;9.77;;;2.88;;
47337;SDS011;33069;51.970;5.892;2023-03-24T13:14:32;7.85;;;3.35;;
47337;SDS011;33069;51.970;5.892;2023-03-24T13:17:06;11.20;;;3.33;;
47337;SDS011;33069;51.970;5.892;2023-03-24T13:19:38;13.73;;;3.65;;
47337;SDS011;33069;51.970;5.892;2023-03-24T13:22:05;12.48;;;4.80;;
47337;SDS011;33069;51.970;5.892;2023-03-24T13:24:39;11.10;;;3.92;;
47337;SDS011;33069;51.970;5.892;2023-03-24T13:27:08;8.13;;;3.75;;
47337;SDS011;33069;51.970;5.892;2023-03-24T13:43:30;7.93;;;3.15;;
47337;SDS011;33069;51.970;5.892;2023-03-24T13:46:01;7.28;;;2.63;;
47337;SDS011;33069;51.970;5.892;2023-03-24T13:50:57;6.70;;;3.03;;
47337;SDS011;33069;51.970;5.892;2023-03-24T13:55:55;12.98;;;3.65;;
47337;SDS011;33069;51.970;5.892;2023-03-24T13:58:23;10.80;;;2.72;;
47337;SDS011;33069;51.970;5.892;2023-03-24T14:03:39;3.05;;;1.40;;
47337;SDS011;33069;51.970;5.892;2023-03-24T14:06:07;4.32;;;1.48;;
47337;SDS011;33069;51.970;5.892;2023-03-24T14:19:40;6.85;;;2.10;;
47337;SDS011;33069;51.970;5.892;2023-03-24T14:22:33;5.50;;;2.13;;
47337;SDS011;33069;51.970;5.892;2023-03-24T14:25:46;4.77;;;1.80;;
47337;SDS011;33069;51.970;5.892;2023-03-24T14:28:05;17.75;;;2.60;;
47337;SDS011;33069;51.970;5.892;2023-03-24T14:30:32;6.10;;;2.47;;
47337;SDS011;33069;51.970;5.892;2023-03-24T14:33:02;6.47;;;2.80;;
47337;SDS011;33069;51.970;5.892;2023-03-24T14:40:48;10.10;;;4.10;;
47337;SDS011;33069;51.970;5.892;2023-03-24T14:43:23;19.48;;;4.57;;
47337;SDS011;33069;51.970;5.892;2023-03-24T14:48:56;9.38;;;3.17;;
47337;SDS011;33069;51.970;5.892;2023-03-24T14:54:10;8.27;;;2.35;;
47337;SDS011;33069;51.970;5.892;2023-03-24T14:56:40;9.27;;;2.67;;
47337;SDS011;33069;51.970;5.892;2023-03-24T15:04:37;6.07;;;2.03;;
47337;SDS011;33069;51.970;5.892;2023-03-24T15:07:03;5.50;;;2.15;;
47337;SDS011;33069;51.970;5.892;2023-03-24T15:09:30;4.10;;;2.38;;
47337;SDS011;33069;51.970;5.892;2023-03-24T15:12:00;4.07;;;2.22;;
47337;SDS011;33069;51.970;5.892;2023-03-24T15:14:26;5.35;;;2.72;;
47337;SDS011;33069;51.970;5.892;2023-03-24T15:17:05;5.97;;;2.80;;
47337;SDS011;33069;51.970;5.892;2023-03-24T15:19:40;6.55;;;3.13;;
47337;SDS011;33069;51.970;5.892;2023-03-24T15:22:09;5.47;;;2.55;;
47337;SDS011;33069;51.970;5.892;2023-03-24T15:24:36;8.10;;;3.35;;
47337;SDS011;33069;51.970;5.892;2023-03-24T15:29:31;8.50;;;3.65;;
47337;SDS011;33069;51.970;5.892;2023-03-24T15:31:57;6.20;;;3.35;;
47337;SDS011;33069;51.970;5.892;2023-03-24T15:37:05;9.80;;;3.92;;
47337;SDS011;33069;51.970;5.892;2023-03-24T15:39:47;5.90;;;4.15;;
47337;SDS011;33069;51.970;5.892;2023-03-24T15:42:22;9.40;;;4.10;;
47337;SDS011;33069;51.970;5.892;2023-03-24T15:44:49;7.18;;;4.70;;
47337;SDS011;33069;51.970;5.892;2023-03-24T15:47:21;7.93;;;3.78;;
47337;SDS011;33069;51.970;5.892;2023-03-24T15:49:57;8.85;;;3.28;;
47337;SDS011;33069;51.970;5.892;2023-03-24T15:52:29;9.73;;;3.67;;
47337;SDS011;33069;51.970;5.892;2023-03-24T15:57:59;5.45;;;2.50;;
47337;SDS011;33069;51.970;5.892;2023-03-24T16:00:41;8.40;;;3.00;;
47337;SDS011;33069;51.970;5.892;2023-03-24T16:03:09;5.72;;;2.50;;
47337;SDS011;33069;51.970;5.892;2023-03-24T16:05:47;7.13;;;3.10;;
47337;SDS011;33069;51.970;5.892;2023-03-24T16:11:04;10.32;;;4.25;;
47337;SDS011;33069;51.970;5.892;2023-03-24T16:13:34;9.50;;;3.58;;
47337;SDS011;33069;51.970;5.892;2023-03-24T16:16:06;8.65;;;3.50;;
47337;SDS011;33069;51.970;5.892;2023-03-24T16:18:48;6.75;;;3.70;;
47337;SDS011;33069;51.970;5.892;2023-03-24T16:23:40;8.65;;;3.90;;
47337;SDS011;33069;51.970;5.892;2023-03-24T16:26:27;7.85;;;3.90;;
47337;SDS011;33069;51.970;5.892;2023-03-24T16:28:54;6.65;;;4.05;;
47337;SDS011;33069;51.970;5.892;2023-03-24T16:31:30;7.70;;;3.97;;
47337;SDS011;33069;51.970;5.892;2023-03-24T16:33:59;10.00;;;3.30;;
47337;SDS011;33069;51.970;5.892;2023-03-24T16:36:25;7.13;;;3.63;;
47337;SDS011;33069;51.970;5.892;2023-03-24T16:38:51;7.45;;;3.33;;
47337;SDS011;33069;51.970;5.892;2023-03-24T16:41:18;8.48;;;3.92;;
47337;SDS011;33069;51.970;5.892;2023-03-24T16:43:44;6.00;;;2.55;;
47337;SDS011;33069;51.970;5.892;2023-03-24T16:46:11;9.75;;;2.92;;
47337;SDS011;33069;51.970;5.892;2023-03-24T16:48:42;8.63;;;2.70;;
47337;SDS011;33069;51.970;5.892;2023-03-24T16:51:12;5.85;;;2.40;;
47337;SDS011;33069;51.970;5.892;2023-03-24T16:53:41;9.15;;;3.13;;
47337;SDS011;33069;51.970;5.892;2023-03-24T16:56:08;10.35;;;3.03;;
47337;SDS011;33069;51.970;5.892;2023-03-24T16:58:36;8.20;;;3.15;;
47337;SDS011;33069;51.970;5.892;2023-03-24T17:01:02;7.82;;;2.60;;
47337;SDS011;33069;51.970;5.892;2023-03-24T17:03:54;9.95;;;2.50;;
47337;SDS011;33069;51.970;5.892;2023-03-24T17:06:21;7.10;;;3.10;;
47337;SDS011;33069;51.970;5.892;2023-03-24T17:08:48;9.07;;;3.10;;
47337;SDS011;33069;51.970;5.892;2023-03-24T17:11:14;8.38;;;2.75;;
47337;SDS011;33069;51.970;5.892;2023-03-24T17:13:50;14.95;;;3.22;;
47337;SDS011;33069;51.970;5.892;2023-03-24T17:16:16;8.43;;;2.97;;
47337;SDS011;33069;51.970;5.892;2023-03-24T17:18:41;9.00;;;3.10;;
47337;SDS011;33069;51.970;5.892;2023-03-24T17:21:11;10.07;;;2.78;;
47337;SDS011;33069;51.970;5.892;2023-03-24T17:23:41;11.60;;;2.80;;
47337;SDS011;33069;51.970;5.892;2023-03-24T17:26:07;8.27;;;2.50;;
47337;SDS011;33069;51.970;5.892;2023-03-24T17:28:33;7.25;;;2.67;;
47337;SDS011;33069;51.970;5.892;2023-03-24T17:31:00;8.77;;;2.60;;
47337;SDS011;33069;51.970;5.892;2023-03-24T17:33:25;11.48;;;4.22;;
47337;SDS011;33069;51.970;5.892;2023-03-24T17:35:52;13.45;;;2.92;;
47337;SDS011;33069;51.970;5.892;2023-03-24T17:38:18;8.02;;;2.28;;
47337;SDS011;33069;51.970;5.892;2023-03-24T17:40:43;8.35;;;2.45;;
47337;SDS011;33069;51.970;5.892;2023-03-24T17:43:10;10.88;;;2.65;;
47337;SDS011;33069;51.970;5.892;2023-03-24T17:45:38;11.52;;;2.67;;
47337;SDS011;33069;51.970;5.892;2023-03-24T17:48:05;8.57;;;2.55;;
47337;SDS011;33069;51.970;5.892;2023-03-24T17:50:31;8.70;;;2.42;;
47337;SDS011;33069;51.970;5.892;2023-03-24T17:52:57;9.63;;;2.63;;
47337;SDS011;33069;51.970;5.892;2023-03-24T17:55:24;10.18;;;2.40;;
47337;SDS011;33069;51.970;5.892;2023-03-24T17:57:50;12.27;;;2.30;;
47337;SDS011;33069;51.970;5.892;2023-03-24T18:00:16;10.20;;;2.58;;
47337;SDS011;33069;51.970;5.892;2023-03-24T18:02:42;9.50;;;3.17;;
47337;SDS011;33069;51.970;5.892;2023-03-24T18:05:09;10.10;;;2.72;;
47337;SDS011;33069;51.970;5.892;2023-03-24T18:07:37;10.10;;;2.95;;
47337;SDS011;33069;51.970;5.892;2023-03-24T18:10:04;9.93;;;2.88;;
47337;SDS011;33069;51.970;5.892;2023-03-24T18:12:30;6.93;;;2.33;;
47337;SDS011;33069;51.970;5.892;2023-03-24T18:14:56;9.05;;;2.72;;